Time;durP1;ratioP1;P1;durP2;ratioP2;P2;SDS_P1;SDS_P2;PMS_P1;PMS_P2;Temp;Humidity;BMP_temperature;BMP_pressure;BME280_temperature;BME280_humidity;BME280_pressure;Samples;Min_cycle;Max_cycle;Signal;HPM_P1;HPM_P2
2023/06/13 00:00:33;;;;;;;6.25;3.90;;;;;;;19.93;36.58;99489.50;1085059;54;20042;-77
2023/06/13 00:01:35;;;;;;;5.80;3.28;;;;;;;20.00;36.61;99481.34;1083371;54;20053;-80
2023/06/13 00:02:40;;;;;;;6.90;3.60;;;;;;;19.91;36.72;99485.38;1083876;54;20396;-80
2023/06/13 00:03:41;;;;;;;5.15;3.80;;;;;;;19.95;36.68;99483.84;1083588;54;20045;-79
2023/06/13 00:04:45;;;;;;;6.68;3.38;;;;;;;19.92;36.75;99487.03;1084386;54;20096;-77
2023/06/13 00:05:47;;;;;;;6.25;4.00;;;;;;;19.89;36.99;99476.63;1083813;54;20141;-80
2023/06/13 00:06:53;;;;;;;5.70;3.40;;;;;;;19.97;36.58;99479.06;1083521;54;20059;-77
2023/06/13 00:07:54;;;;;;;6.68;3.20;;;;;;;19.99;36.76;99466.09;1084271;54;20073;-77
2023/06/13 00:08:58;;;;;;;4.55;3.03;;;;;;;20.06;36.43;99472.31;1084423;39;20462;-81
2023/06/13 00:09:59;;;;;;;5.53;3.00;;;;;;;20.12;36.47;99467.88;1083349;54;20162;-77
2023/06/13 00:11:03;;;;;;;5.05;3.10;;;;;;;20.15;36.21;99472.03;1084179;54;20042;-80
2023/06/13 00:12:05;;;;;;;9.23;3.47;;;;;;;20.20;36.25;99475.72;1083242;54;20048;-80
2023/06/13 00:13:10;;;;;;;5.45;2.75;;;;;;;20.10;36.28;99478.97;1083798;47;20042;-77
2023/06/13 00:14:12;;;;;;;6.00;3.00;;;;;;;20.03;36.44;99483.59;1083441;54;20034;-82
2023/06/13 00:15:16;;;;;;;5.88;3.30;;;;;;;19.92;36.61;99481.59;1083636;54;20034;-78
2023/06/13 00:16:25;;;;;;;6.15;3.47;;;;;;;19.91;36.87;99474.53;1084600;54;20042;-80
2023/06/13 00:17:29;;;;;;;5.78;3.60;;;;;;;19.80;37.15;99476.84;1084218;54;20050;-79
2023/06/13 00:18:30;;;;;;;7.15;3.67;;;;;;;19.94;36.65;99476.78;1083481;47;20079;-77
2023/06/13 00:19:34;;;;;;;5.63;3.28;;;;;;;19.87;36.75;99476.00;1083668;54;20034;-78
2023/06/13 00:20:35;;;;;;;6.90;3.65;;;;;;;19.72;37.17;99477.13;1084251;47;20102;-81
2023/06/13 00:21:40;;;;;;;6.55;3.60;;;;;;;19.74;37.08;99476.88;1084012;54;20038;-80
2023/06/13 00:22:41;;;;;;;4.97;3.05;;;;;;;19.80;37.21;99479.56;1083697;54;20062;-77
2023/06/13 00:23:45;;;;;;;5.53;3.00;;;;;;;19.88;37.06;99480.38;1083879;54;20038;-76
2023/06/13 00:24:46;;;;;;;5.28;3.30;;;;;;;19.89;36.81;99474.72;1083811;47;20659;-78
2023/06/13 00:25:50;;;;;;;4.95;3.10;;;;;;;19.79;37.20;99477.91;1084126;54;20043;-79
2023/06/13 00:26:51;;;;;;;9.77;3.20;;;;;;;19.87;37.01;99479.56;1083303;54;20683;-79
2023/06/13 00:27:55;;;;;;;5.82;3.30;;;;;;;19.78;37.09;99478.13;1084052;47;20066;-80
2023/06/13 00:28:57;;;;;;;5.50;3.10;;;;;;;19.79;37.12;99477.91;1083771;54;20034;-78
2023/06/13 00:30:00;;;;;;;6.78;3.03;;;;;;;19.77;37.12;99480.00;1083797;54;20107;-78
2023/06/13 00:31:02;;;;;;;5.07;3.00;;;;;;;19.87;36.80;99484.13;1083434;54;20060;-79
2023/06/13 00:32:10;;;;;;;5.22;2.90;;;;;;;19.90;36.90;99470.16;1083346;54;20625;-77
2023/06/13 00:33:15;;;;;;;5.18;3.22;;;;;;;19.93;36.98;99473.25;1083583;54;20130;-78
2023/06/13 00:34:19;;;;;;;5.57;2.80;;;;;;;19.91;37.01;99469.09;1084120;47;20045;-78
2023/06/13 00:35:20;;;;;;;5.30;3.47;;;;;;;19.78;37.03;99478.94;1083801;54;20034;-78
2023/06/13 00:36:25;;;;;;;5.07;3.20;;;;;;;19.69;37.45;99474.84;1084147;47;20133;-80
2023/06/13 00:37:29;;;;;;;6.45;2.97;;;;;;;19.71;37.32;99471.91;1084127;54;20061;-80
2023/06/13 00:38:33;;;;;;;5.13;3.25;;;;;;;19.76;37.07;99472.91;1083652;54;20042;-78
2023/06/13 00:39:36;;;;;;;4.47;2.72;;;;;;;19.79;37.11;99471.63;1083494;47;20146;-80
2023/06/13 00:40:41;;;;;;;5.53;3.00;;;;;;;19.78;37.24;99483.56;1083419;47;20706;-76
2023/06/13 00:41:42;;;;;;;5.10;3.13;;;;;;;19.84;36.93;99473.72;1085288;54;20034;-83
2023/06/13 00:42:46;;;;;;;5.93;3.03;;;;;;;19.88;36.98;99480.38;1085589;54;20031;-79
2023/06/13 00:43:47;;;;;;;4.32;2.70;;;;;;;19.91;36.69;99474.53;1084926;47;20057;-80
2023/06/13 00:44:50;;;;;;;4.45;2.75;;;;;;;19.88;36.94;99474.94;1084355;54;20660;-76
2023/06/13 00:45:51;;;;;;;5.38;2.88;;;;;;;19.87;37.09;99476.00;1084717;47;20035;-76
2023/06/13 00:46:56;;;;;;;4.88;3.08;;;;;;;19.87;36.92;99478.72;1085754;54;20035;-76
2023/06/13 00:48:02;;;;;;;5.72;3.10;;;;;;;19.77;37.22;99481.88;1083845;54;20058;-77
2023/06/13 00:49:07;;;;;;;5.47;3.10;;;;;;;19.80;37.03;99474.16;1084445;31;20593;-76
2023/06/13 00:50:09;;;;;;;5.18;3.15;;;;;;;19.89;37.06;99477.44;1084099;54;20568;-77
2023/06/13 00:51:14;;;;;;;6.15;2.78;;;;;;;19.91;36.93;99480.75;1084027;47;20049;-77
2023/06/13 00:52:16;;;;;;;5.47;3.03;;;;;;;19.82;37.12;99470.38;1083561;47;20034;-77
2023/06/13 00:53:21;;;;;;;4.90;3.13;;;;;;;19.91;36.92;99474.53;1084002;54;20091;-75
2023/06/13 00:54:23;;;;;;;4.80;2.53;;;;;;;19.93;36.84;99467.00;1084718;54;20090;-75
2023/06/13 00:55:28;;;;;;;4.40;2.47;;;;;;;19.95;36.59;99475.72;1084223;54;20087;-77
2023/06/13 00:56:30;;;;;;;4.53;2.67;;;;;;;19.90;36.86;99470.97;1085760;54;20034;-75
2023/06/13 00:57:36;;;;;;;4.70;2.50;;;;;;;19.87;37.15;99462.44;1085432;47;20121;-74
2023/06/13 00:58:37;;;;;;;4.90;2.72;;;;;;;19.81;37.10;99472.25;1085016;54;20066;-75
2023/06/13 00:59:41;;;;;;;4.93;2.97;;;;;;;19.85;36.86;99464.50;1084863;47;20687;-77
2023/06/13 01:00:44;;;;;;;4.55;2.47;;;;;;;19.88;37.00;99464.09;1085844;54;20063;-79
2023/06/13 01:01:48;;;;;;;5.05;3.13;;;;;;;19.92;37.01;99459.91;1085592;54;20062;-76
2023/06/13 01:02:55;;;;;;;4.10;2.30;;;;;;;19.96;36.96;99458.41;1085469;47;20034;-76
2023/06/13 01:04:02;;;;;;;4.78;2.97;;;;;;;19.87;37.08;99462.44;1085512;54;20048;-76
2023/06/13 01:05:04;;;;;;;5.75;2.85;;;;;;;19.85;36.85;99462.66;1085162;54;20073;-77
2023/06/13 01:06:09;;;;;;;4.43;2.53;;;;;;;19.91;36.75;99464.50;1086709;39;20610;-76
2023/06/13 01:07:11;;;;;;;4.88;2.55;;;;;;;19.92;37.07;99463.44;1085163;54;20039;-76
2023/06/13 01:08:19;;;;;;;3.83;2.20;;;;;;;19.91;36.84;99460.97;1086186;39;20599;-76
2023/06/13 01:09:22;;;;;;;5.15;3.00;;;;;;;19.91;36.88;99464.50;1085145;54;20061;-76
2023/06/13 01:10:25;;;;;;;4.13;2.35;;;;;;;19.93;36.68;99456.97;1085445;54;20050;-78
2023/06/13 01:11:33;;;;;;;4.53;2.40;;;;;;;19.92;36.84;99459.91;1085512;54;20038;-77
2023/06/13 01:12:45;;;;;;;4.30;2.67;;;;;;;19.88;36.84;99458.69;1085541;54;20411;-76
2023/06/13 01:13:51;;;;;;;5.43;3.00;;;;;;;19.77;37.47;99457.47;1085062;54;20469;-77
2023/06/13 01:15:01;;;;;;;4.75;2.88;;;;;;;19.78;37.15;99459.97;1085510;54;20042;-77
2023/06/13 01:16:12;;;;;;;5.40;2.72;;;;;;;19.70;37.62;99462.94;1085550;54;20105;-77
2023/06/13 01:17:18;;;;;;;4.70;2.70;;;;;;;19.72;37.70;99462.72;1085986;39;20414;-77
2023/06/13 01:18:24;;;;;;;4.90;3.08;;;;;;;19.72;37.70;99460.00;1085262;54;20042;-78
2023/06/13 01:19:37;;;;;;;4.53;3.10;;;;;;;19.69;37.80;99469.41;1085035;47;20102;-78
2023/06/13 01:20:39;;;;;;;5.30;2.97;;;;;;;19.62;37.68;99461.31;1085030;54;20607;-78
2023/06/13 01:21:44;;;;;;;6.05;2.92;;;;;;;19.56;37.79;99458.66;1085155;47;20038;-78
2023/06/13 01:23:03;;;;;;;5.50;3.25;;;;;;;19.52;38.12;99460.16;1085479;47;20064;-77
2023/06/13 01:24:14;;;;;;;5.50;3.10;;;;;;;19.44;38.55;99459.38;1085716;47;20045;-77
2023/06/13 01:25:24;;;;;;;6.50;3.28;;;;;;;19.36;38.80;99462.34;1085932;54;20057;-77
2023/06/13 01:26:47;;;;;;;5.55;2.90;;;;;;;19.35;38.86;99455.25;1086143;47;20028;-77
2023/06/13 01:27:51;;;;;;;6.00;3.40;;;;;;;19.33;38.65;99457.34;1085220;47;20027;-76
2023/06/13 01:28:55;;;;;;;6.10;3.50;;;;;;;19.25;39.10;99471.13;1086289;47;20119;-77
2023/06/13 01:29:58;;;;;;;4.88;2.88;;;;;;;19.21;39.24;99464.47;1085231;47;20058;-77
2023/06/13 01:31:05;;;;;;;5.10;3.22;;;;;;;19.24;39.12;99461.34;1085601;54;20097;-78
2023/06/13 01:32:08;;;;;;;4.75;2.85;;;;;;;19.25;38.94;99463.00;1085860;54;20034;-79
2023/06/13 01:33:14;;;;;;;4.00;2.63;;;;;;;19.22;39.01;99453.44;1086196;54;20049;-75
2023/06/13 01:34:19;;;;;;;5.00;3.15;;;;;;;19.22;38.86;99460.72;1091356;31;20700;-79
2023/06/13 01:35:21;;;;;;;4.57;3.10;;;;;;;19.24;39.09;99447.78;1085809;54;20038;-76
2023/06/13 01:36:26;;;;;;;5.75;3.00;;;;;;;19.29;38.90;99447.97;1086386;54;20054;-80
2023/06/13 01:37:29;;;;;;;4.13;2.38;;;;;;;19.31;38.59;99446.72;1086575;54;20049;-78
2023/06/13 01:38:33;;;;;;;5.55;2.90;;;;;;;19.27;38.87;99442.78;1086391;54;20034;-78
2023/06/13 01:39:35;;;;;;;5.53;3.13;;;;;;;19.26;39.02;99437.59;1086011;54;20050;-79
2023/06/13 01:40:39;;;;;;;5.15;3.10;;;;;;;19.24;39.11;99447.78;1086332;54;20035;-79
2023/06/13 01:41:40;;;;;;;4.68;2.72;;;;;;;19.24;39.04;99447.78;1086340;54;20046;-77
2023/06/13 01:42:46;;;;;;;6.93;2.92;;;;;;;19.03;39.54;99447.06;1086229;54;20133;-77
2023/06/13 01:43:48;;;;;;;6.68;3.35;;;;;;;19.04;39.54;99447.88;1086531;47;20055;-83
2023/06/13 01:44:51;;;;;;;5.03;2.97;;;;;;;19.07;39.14;99448.31;1086716;54;20035;-77
2023/06/13 01:46:13;;;;;;;5.93;2.92;;;;;;;19.04;39.38;99451.44;1086478;47;20106;-77
2023/06/13 01:47:25;;;;;;;8.05;3.08;;;;;;;19.01;39.90;99454.56;1086836;54;20030;-78
2023/06/13 01:48:39;;;;;;;4.18;2.53;;;;;;;18.99;39.74;99452.06;1086210;47;20027;-79
2023/06/13 01:49:51;;;;;;;6.32;2.72;;;;;;;19.03;39.45;99444.34;1086225;47;20734;-79
2023/06/13 01:51:00;;;;;;;7.53;2.88;;;;;;;19.01;39.38;99446.44;1086148;47;20534;-79
2023/06/13 01:52:14;;;;;;;4.70;2.80;;;;;;;19.01;39.63;99449.13;1086134;54;20092;-78
2023/06/13 01:53:23;;;;;;;7.25;2.88;;;;;;;18.92;39.92;99450.41;1085674;54;20136;-77
2023/06/13 01:54:28;;;;;;;7.40;3.22;;;;;;;18.98;39.62;99446.88;1085942;54;20048;-78
2023/06/13 01:55:35;;;;;;;4.70;2.78;;;;;;;19.01;39.54;99441.88;1085995;46;20059;-80
2023/06/13 01:56:43;;;;;;;6.03;3.13;;;;;;;19.04;39.39;99440.59;1087733;39;20577;-78
2023/06/13 01:57:57;;;;;;;5.13;2.88;;;;;;;19.02;39.78;99450.81;1085769;47;20038;-77
2023/06/13 01:59:05;;;;;;;14.07;3.40;;;;;;;18.95;39.58;99442.69;1086441;54;20125;-78
2023/06/13 02:00:09;;;;;;;5.15;3.20;;;;;;;18.95;39.50;99445.41;1086298;47;20031;-83
2023/06/13 02:01:20;;;;;;;4.47;2.92;;;;;;;18.99;39.75;99445.81;1086198;54;20022;-79
2023/06/13 02:02:23;;;;;;;6.20;3.15;;;;;;;18.90;39.62;99447.06;1085953;47;20035;-80
2023/06/13 02:03:27;;;;;;;4.80;2.60;;;;;;;18.84;39.73;99446.88;1085304;54;20045;-80
2023/06/13 02:04:28;;;;;;;6.45;3.17;;;;;;;18.86;39.96;99446.66;1083825;47;20924;-79
2023/06/13 02:05:32;;;;;;;7.13;3.38;;;;;;;18.85;39.95;99443.13;1084264;54;20102;-79
2023/06/13 02:06:33;;;;;;;8.02;3.47;;;;;;;18.93;39.85;99443.97;1083942;47;20031;-77
2023/06/13 02:07:38;;;;;;;6.75;3.22;;;;;;;18.92;39.73;99443.13;1083841;54;20091;-77
2023/06/13 02:08:40;;;;;;;5.88;2.70;;;;;;;18.89;39.78;99448.13;1083161;47;20030;-77
2023/06/13 02:09:48;;;;;;;5.07;2.80;;;;;;;18.83;39.95;99441.69;1083512;54;20066;-78
2023/06/13 02:10:52;;;;;;;6.68;3.00;;;;;;;18.79;40.29;99437.75;1083517;47;20041;-77
2023/06/13 02:11:56;;;;;;;5.00;2.83;;;;;;;18.81;40.18;99444.59;1083381;47;20045;-77
2023/06/13 02:13:00;;;;;;;5.82;2.88;;;;;;;18.80;40.27;99444.81;1083244;54;20058;-77
2023/06/13 02:14:03;;;;;;;5.50;3.25;;;;;;;18.64;40.52;99444.25;1083627;54;20030;-79
2023/06/13 02:15:08;;;;;;;7.18;2.70;;;;;;;18.59;40.39;99437.81;1083220;54;20058;-79
2023/06/13 02:16:12;;;;;;;4.80;2.85;;;;;;;18.45;40.37;99451.34;1083591;47;20061;-77
2023/06/13 02:17:14;;;;;;;6.53;3.25;;;;;;;18.41;40.73;99444.72;1083601;54;20039;-78
2023/06/13 02:18:18;;;;;;;4.80;3.22;;;;;;;18.39;40.49;99447.63;1083436;54;20030;-77
2023/06/13 02:19:19;;;;;;;9.38;3.00;;;;;;;18.29;40.55;99449.09;1084028;47;20030;-76
2023/06/13 02:20:26;;;;;;;7.05;3.20;;;;;;;18.23;41.04;99443.47;1083895;54;20644;-79
2023/06/13 02:21:29;;;;;;;6.22;3.03;;;;;;;18.12;40.98;99446.84;1084421;47;20035;-78
2023/06/13 02:22:33;;;;;;;5.28;3.30;;;;;;;18.12;41.32;99446.84;1084057;47;20035;-77
2023/06/13 02:23:35;;;;;;;5.35;3.00;;;;;;;18.11;41.31;99441.63;1085254;54;20039;-80
2023/06/13 02:24:40;;;;;;;9.07;3.33;;;;;;;18.04;41.29;99444.34;1084120;54;20042;-77
2023/06/13 02:25:53;;;;;;;5.57;3.13;;;;;;;17.99;41.71;99444.13;1084310;51;20053;-77
2023/06/13 02:27:08;;;;;;;7.60;3.28;;;;;;;18.00;41.79;99446.59;1084708;47;20044;-78
2023/06/13 02:28:13;;;;;;;7.70;3.30;;;;;;;17.97;41.68;99441.63;1085274;54;20034;-81
2023/06/13 02:29:18;;;;;;;6.75;3.22;;;;;;;17.98;41.65;99445.16;1084538;47;20058;-77
2023/06/13 02:30:19;;;;;;;17.38;3.58;;;;;;;18.01;41.47;99444.75;1083783;51;20078;-80
2023/06/13 02:31:23;;;;;;;6.47;3.45;;;;;;;17.93;41.75;99446.59;1083765;54;20053;-77
2023/06/13 02:32:24;;;;;;;5.78;2.53;;;;;;;18.02;41.35;99443.72;1083732;47;20034;-78
2023/06/13 02:33:30;;;;;;;6.78;3.70;;;;;;;17.96;41.44;99441.78;1083874;54;20038;-78
2023/06/13 02:34:31;;;;;;;6.93;3.17;;;;;;;17.93;41.49;99441.19;1083892;39;20363;-81
2023/06/13 02:35:35;;;;;;;5.85;3.03;;;;;;;17.93;41.67;99449.31;1083286;47;20377;-78
2023/06/13 02:36:36;;;;;;;8.48;3.00;;;;;;;17.87;41.81;99447.41;1082570;54;20156;-76
2023/06/13 07:11:53;;;;;;;6.68;3.08;;;;;;;20.77;34.10;99536.44;1088324;54;20026;-81
2023/06/13 07:13:17;;;;;;;5.00;2.60;;;;;;;21.11;33.51;99545.06;1087900;54;20117;-82
2023/06/13 07:14:18;;;;;;;7.22;2.90;;;;;;;20.97;33.46;99531.59;1088360;46;20047;-82
2023/06/13 07:15:22;;;;;;;5.97;2.78;;;;;;;21.06;33.49;99539.47;1088321;47;20030;-81
2023/06/13 07:16:23;;;;;;;8.80;2.75;;;;;;;21.02;33.47;99550.78;1090982;38;20626;-82
2023/06/13 07:17:27;;;;;;;5.13;3.05;;;;;;;21.11;33.28;99537.72;1089696;38;20225;-81
2023/06/13 07:18:29;;;;;;;5.35;2.88;;;;;;;21.14;33.07;99552.75;1088539;46;20073;-84
2023/06/13 07:19:39;;;;;;;5.57;2.78;;;;;;;20.93;32.88;99544.00;1088405;46;20755;-83
2023/06/13 07:20:40;;;;;;;5.38;2.40;;;;;;;21.17;32.67;99541.41;1088517;46;20034;-82
2023/06/13 07:21:44;;;;;;;5.15;2.60;;;;;;;21.11;32.85;99551.31;1088518;54;20054;-82
2023/06/13 07:22:47;;;;;;;6.22;2.63;;;;;;;21.22;32.63;99544.31;1088562;54;20041;-81
2023/06/13 07:23:48;;;;;;;4.68;3.00;;;;;;;21.28;32.15;99537.94;1088631;54;20034;-82
2023/06/13 07:24:52;;;;;;;6.72;2.90;;;;;;;21.16;32.70;99540.59;1087836;54;20086;-81
2023/06/13 07:25:53;;;;;;;6.75;3.08;;;;;;;21.35;32.40;99538.69;1087008;46;20726;-83
2023/06/13 07:26:57;;;;;;;6.82;3.17;;;;;;;21.07;32.71;99535.69;1087027;54;20046;-83
2023/06/13 07:27:58;;;;;;;7.57;2.78;;;;;;;21.18;32.66;99535.78;1087215;54;20876;-83
2023/06/13 07:29:04;;;;;;;6.25;3.08;;;;;;;21.28;32.67;99537.94;1087267;54;20058;-80
2023/06/13 07:30:07;;;;;;;4.97;2.55;;;;;;;21.32;32.36;99522.84;1087079;47;20030;-81
2023/06/13 07:31:11;;;;;;;7.60;2.60;;;;;;;21.53;32.09;99536.19;1086991;54;20044;-84
2023/06/13 07:32:12;;;;;;;6.93;2.45;;;;;;;21.42;32.16;99526.91;1086941;47;20061;-82
2023/06/13 07:33:16;;;;;;;5.20;2.80;;;;;;;21.48;32.05;99529.56;1086926;54;20035;-81
2023/06/13 07:34:17;;;;;;;4.93;2.80;;;;;;;21.45;31.80;99529.16;1088123;39;20224;-82
2023/06/13 07:35:23;;;;;;;7.55;2.95;;;;;;;21.61;31.80;99534.03;1086935;47;20100;-83
2023/06/13 07:36:24;;;;;;;6.25;2.67;;;;;;;21.68;31.60;99522.22;1086923;47;20046;-81
2023/06/13 07:37:28;;;;;;;5.32;2.53;;;;;;;21.79;31.61;99532.31;1086976;54;20090;-83
2023/06/13 07:38:29;;;;;;;6.85;2.28;;;;;;;21.80;31.43;99523.91;1087098;54;20042;-78
2023/06/13 07:39:33;;;;;;;6.50;2.90;;;;;;;21.84;31.13;99524.25;1087107;54;20043;-78
2023/06/13 07:40:34;;;;;;;7.40;2.70;;;;;;;22.00;31.16;99521.97;1086952;47;20030;-82
2023/06/13 07:41:38;;;;;;;6.07;3.20;;;;;;;21.64;31.22;99525.38;1086961;47;20046;-82
2023/06/13 07:42:39;;;;;;;7.65;2.88;;;;;;;21.90;30.97;99523.34;1087446;39;20698;-83
2023/06/13 07:43:42;;;;;;;7.07;2.95;;;;;;;21.87;31.30;99521.09;1087089;54;20038;-83
2023/06/13 07:44:46;;;;;;;7.32;3.10;;;;;;;21.96;30.87;99522.41;1086861;47;20114;-83
2023/06/13 07:45:50;;;;;;;5.95;2.90;;;;;;;21.96;31.37;99521.59;1087004;47;20063;-82
2023/06/13 07:46:51;;;;;;;7.35;3.15;;;;;;;21.86;31.11;99516.72;1086918;47;20062;-80
2023/06/13 07:47:55;;;;;;;5.60;2.70;;;;;;;22.00;31.05;99509.16;1086645;47;20029;-80
2023/06/13 07:48:56;;;;;;;5.35;2.78;;;;;;;22.22;30.95;99520.34;1086851;46;21177;-81
2023/06/13 07:49:59;;;;;;;7.38;3.00;;;;;;;22.24;30.95;99512.75;1086929;47;20045;-81
2023/06/13 07:51:00;;;;;;;4.97;2.80;;;;;;;22.19;30.75;99515.38;1086913;54;20778;-80
2023/06/13 07:52:04;;;;;;;5.38;2.60;;;;;;;22.18;30.76;99513.72;1087199;54;20083;-79
2023/06/13 07:53:05;;;;;;;7.07;2.75;;;;;;;21.98;31.11;99516.72;1087155;54;20098;-82
2023/06/13 07:54:09;;;;;;;5.82;2.80;;;;;;;22.24;30.64;99506.50;1087450;39;20574;-83
2023/06/13 07:55:10;;;;;;;9.60;3.53;;;;;;;22.04;31.01;99509.53;1086859;47;20030;-82
2023/06/13 07:56:14;;;;;;;6.63;3.00;;;;;;;21.81;31.18;99513.88;1086895;47;20082;-84
2023/06/13 07:57:15;;;;;;;5.82;3.10;;;;;;;22.00;31.51;99502.91;1086912;54;20058;-85
2023/06/13 07:58:19;;;;;;;6.80;2.65;;;;;;;22.18;31.08;99511.00;1087219;54;20031;-82
2023/06/13 07:59:22;;;;;;;5.75;2.90;;;;;;;22.28;30.66;99511.25;1086875;47;20031;-83
2023/06/13 08:00:29;;;;;;;5.03;2.70;;;;;;;22.26;30.39;99504.34;1086749;47;20297;-78
2023/06/13 08:01:30;;;;;;;5.22;2.70;;;;;;;22.36;30.50;99498.34;1086905;47;20022;-82
2023/06/13 08:02:34;;;;;;;6.35;2.70;;;;;;;22.43;30.13;99496.34;1086873;47;20042;-79
2023/06/13 08:03:38;;;;;;;4.63;2.42;;;;;;;22.48;29.97;99501.94;1086863;54;20037;-80
2023/06/13 08:04:39;;;;;;;5.88;2.67;;;;;;;22.67;29.71;99499.09;1087245;54;20057;-82
2023/06/13 08:05:42;;;;;;;8.52;2.63;;;;;;;22.64;30.00;99494.91;1087102;54;20675;-82
2023/06/13 08:06:43;;;;;;;5.35;2.60;;;;;;;22.56;30.31;99493.41;1087128;54;20050;-78
2023/06/13 08:07:47;;;;;;;6.18;2.83;;;;;;;22.85;29.79;99503.56;1087137;54;20061;-82
2023/06/13 08:08:48;;;;;;;5.90;2.90;;;;;;;23.00;29.66;99492.16;1087028;54;20046;-79
2023/06/13 08:09:51;;;;;;;5.22;2.55;;;;;;;23.00;29.75;99497.59;1087081;54;20739;-80
2023/06/13 08:10:52;;;;;;;6.95;2.50;;;;;;;23.08;29.46;99489.06;1086852;47;20050;-82
2023/06/13 08:11:56;;;;;;;5.85;2.92;;;;;;;23.06;29.49;99491.19;1086687;47;20048;-84
2023/06/13 08:12:59;;;;;;;4.30;2.38;;;;;;;23.23;29.07;99495.94;1086767;47;20086;-83
2023/06/13 08:14:03;;;;;;;5.38;2.80;;;;;;;22.85;29.37;99496.22;1086737;47;20030;-82
2023/06/13 08:15:05;;;;;;;6.30;2.83;;;;;;;22.88;29.34;99493.00;1086863;47;20026;-80
2023/06/13 08:16:11;;;;;;;8.75;2.63;;;;;;;22.89;29.08;99486.50;1086902;54;20030;-83
2023/06/13 08:17:13;;;;;;;4.00;2.50;;;;;;;23.15;28.99;99489.75;1086626;47;20023;-83
2023/06/13 08:18:16;;;;;;;8.43;2.53;;;;;;;23.16;28.66;99487.84;1086751;54;20335;-79
2023/06/13 08:19:17;;;;;;;5.68;2.35;;;;;;;23.29;28.71;99478.59;1087157;54;20110;-83
2023/06/13 08:20:21;;;;;;;5.53;2.30;;;;;;;23.40;28.43;99483.19;1086902;47;20888;-80
2023/06/13 08:21:22;;;;;;;4.60;2.42;;;;;;;23.42;28.61;99480.19;1086606;47;20050;-78
2023/06/13 08:22:28;;;;;;;4.38;2.33;;;;;;;23.45;28.16;99480.53;1088191;31;20776;-80
2023/06/13 08:23:30;;;;;;;5.43;2.47;;;;;;;23.55;28.43;99484.53;1086539;54;20059;-82
2023/06/13 08:24:33;;;;;;;3.70;2.15;;;;;;;23.65;28.38;99480.09;1086506;46;20034;-78
2023/06/13 08:25:37;;;;;;;6.28;2.50;;;;;;;23.71;28.46;99481.00;1086243;46;22041;-79
2023/06/13 08:26:38;;;;;;;5.15;2.30;;;;;;;23.71;27.91;99486.47;1086644;46;20051;-83
2023/06/13 08:27:43;;;;;;;4.28;2.50;;;;;;;23.81;28.03;99480.38;1086519;47;20035;-84
2023/06/13 08:28:46;;;;;;;7.43;2.85;;;;;;;23.14;28.69;99471.75;1086561;47;20975;-81
2023/06/13 08:29:50;;;;;;;5.93;2.63;;;;;;;22.85;29.30;99473.59;1086537;47;20030;-80
2023/06/13 08:30:53;;;;;;;5.10;2.80;;;;;;;22.96;29.11;99471.88;1086746;46;20030;-82
2023/06/13 08:31:57;;;;;;;9.48;2.60;;;;;;;22.81;29.85;99473.25;1086519;47;20057;-81
2023/06/13 08:33:01;;;;;;;5.05;2.85;;;;;;;23.06;29.34;99475.69;1086526;47;20921;-84
2023/06/13 08:34:03;;;;;;;6.20;2.50;;;;;;;23.45;28.87;99472.34;1086500;47;20952;-84
2023/06/13 08:35:07;;;;;;;5.30;2.50;;;;;;;23.62;28.73;99474.28;1086478;47;20061;-84
2023/06/13 08:36:08;;;;;;;4.70;2.60;;;;;;;23.95;28.11;99475.44;1086531;54;20094;-83
2023/06/13 08:37:12;;;;;;;5.93;2.45;;;;;;;24.11;27.74;99474.63;1086444;54;20042;-86
2023/06/13 08:38:13;;;;;;;6.38;2.60;;;;;;;24.16;27.40;99484.78;1088420;39;20912;-79
2023/06/13 08:39:17;;;;;;;4.97;2.47;;;;;;;24.17;27.32;99474.72;1087340;39;20983;-85
2023/06/13 08:40:19;;;;;;;4.60;2.53;;;;;;;24.06;27.67;99471.81;1087380;39;20322;-81
2023/06/13 08:41:23;;;;;;;10.15;2.75;;;;;;;23.76;28.17;99466.63;1086533;46;20150;-82
2023/06/13 08:42:25;;;;;;;5.55;3.13;;;;;;;23.40;28.81;99477.72;1086638;46;20034;-84
2023/06/13 08:43:29;;;;;;;6.20;3.10;;;;;;;23.35;28.57;99469.44;1086505;46;20980;-82
2023/06/13 08:44:30;;;;;;;5.57;2.72;;;;;;;23.62;28.71;99482.47;1086567;54;20034;-81
2023/06/13 08:45:34;;;;;;;8.52;2.47;;;;;;;23.91;28.14;99471.53;1086541;54;20046;-82
2023/06/13 08:46:36;;;;;;;4.82;2.67;;;;;;;23.46;28.38;99474.00;1086583;47;20026;-82
2023/06/13 08:47:46;;;;;;;5.65;3.33;;;;;;;23.28;28.40;99476.94;1090156;39;20900;-82
2023/06/13 08:48:47;;;;;;;;;;;;;;;22.97;28.65;99479.00;1088535;39;20991;-82
2023/06/13 08:49:52;;;;;;;7.53;3.10;;;;;;;23.12;28.83;99464.88;1086590;54;19942;-84
2023/06/13 08:50:55;;;;;;;7.20;3.22;;;;;;;23.09;28.54;99458.00;1086562;54;20046;-81
2023/06/13 08:52:02;;;;;;;5.80;2.92;;;;;;;22.86;28.81;99476.06;1086675;46;20030;-83
2023/06/13 08:53:03;;;;;;;7.88;2.80;;;;;;;22.89;28.98;99474.78;1086558;54;20057;-83
2023/06/13 08:54:08;;;;;;;5.32;2.80;;;;;;;22.93;28.84;99469.66;1086317;47;20026;-83
2023/06/13 08:55:12;;;;;;;5.88;3.30;;;;;;;23.03;28.53;99464.44;1086457;47;20022;-84
2023/06/13 08:56:16;;;;;;;7.28;3.03;;;;;;;23.13;28.39;99464.63;1086479;47;20035;-82
2023/06/13 08:57:19;;;;;;;6.03;2.90;;;;;;;23.14;28.45;99477.19;1086729;46;20053;-83
2023/06/13 08:58:27;;;;;;;10.73;3.42;;;;;;;23.22;27.87;99473.28;1086502;54;20887;-81
2023/06/13 08:59:30;;;;;;;4.90;2.75;;;;;;;23.44;27.32;99476.16;1087968;39;20895;-80
2023/06/13 09:00:35;;;;;;;7.93;3.28;;;;;;;23.33;27.46;99457.97;1086542;47;20065;-81
2023/06/13 09:01:37;;;;;;;5.43;2.45;;;;;;;23.55;27.28;99465.44;1086452;47;20053;-83
2023/06/13 09:02:46;;;;;;;4.85;2.60;;;;;;;23.78;26.95;99459.88;1086626;47;20031;-82
2023/06/13 09:03:51;;;;;;;7.65;2.97;;;;;;;23.78;27.39;99459.88;1086454;46;20038;-83
2023/06/13 09:04:53;;;;;;;6.63;2.88;;;;;;;23.61;27.53;99453.56;1086492;54;20030;-82
2023/06/13 09:05:57;;;;;;;12.35;2.75;;;;;;;23.73;27.79;99465.22;1086745;46;20105;-84
2023/06/13 09:06:58;;;;;;;6.18;2.88;;;;;;;23.92;27.30;99465.00;1086688;47;20033;-81
2023/06/13 09:08:03;;;;;;;4.30;2.40;;;;;;;24.12;26.99;99459.91;1086514;46;20099;-84
2023/06/13 09:09:06;;;;;;;5.80;2.90;;;;;;;23.67;27.15;99458.03;1086494;47;20026;-81
2023/06/13 09:10:11;;;;;;;6.68;3.08;;;;;;;23.76;27.22;99452.97;1086549;47;20031;-84
2023/06/13 09:11:15;;;;;;;6.80;3.15;;;;;;;23.77;27.17;99451.91;1086521;46;21081;-82
2023/06/13 09:12:16;;;;;;;8.18;2.92;;;;;;;23.74;27.56;99464.16;1086563;54;20026;-83
2023/06/13 09:13:21;;;;;;;9.73;3.05;;;;;;;24.04;27.09;99457.59;1086469;54;20068;-82
2023/06/13 09:14:25;;;;;;;5.85;2.78;;;;;;;24.25;26.78;99458.72;1086430;47;20048;-81
2023/06/13 09:15:27;;;;;;;7.13;2.78;;;;;;;24.24;26.64;99462.53;1086619;47;20026;-84
2023/06/13 09:16:32;;;;;;;5.53;2.88;;;;;;;24.18;26.48;99451.81;1087474;39;20342;-82
2023/06/13 09:17:36;;;;;;;5.55;2.50;;;;;;;24.44;26.30;99451.09;1086621;54;20100;-82
2023/06/13 09:18:43;;;;;;;5.32;2.88;;;;;;;24.58;25.97;99454.31;1086493;46;20053;-79
2023/06/13 09:19:44;;;;;;;4.45;2.42;;;;;;;24.71;26.06;99450.41;1086581;47;20045;-81
2023/06/13 09:20:49;;;;;;;6.47;2.78;;;;;;;24.81;26.05;99449.69;1086460;47;20042;-83
2023/06/13 09:21:50;;;;;;;4.70;2.90;;;;;;;24.79;26.13;99451.03;1086507;47;20064;-86
2023/06/13 09:22:56;;;;;;;5.32;2.47;;;;;;;24.91;25.93;99443.56;1086407;46;20030;-82
2023/06/13 09:23:58;;;;;;;4.25;2.53;;;;;;;24.79;26.28;99446.41;1086433;54;20071;-82
2023/06/13 09:25:04;;;;;;;7.93;3.05;;;;;;;25.06;25.83;99445.66;1086457;54;20034;-82
2023/06/13 09:26:05;;;;;;;11.07;2.88;;;;;;;24.39;26.35;99444.75;1086129;47;20049;-79
2023/06/13 09:27:10;;;;;;;25.58;3.40;;;;;;;24.20;26.48;99452.34;1086382;47;20109;-81
2023/06/13 09:28:27;;;;;;;6.97;3.58;;;;;;;24.34;26.47;99439.19;1086549;47;20057;-82
2023/06/13 09:29:35;;;;;;;8.65;3.10;;;;;;;24.53;26.07;99435.09;1086560;47;20031;-82
2023/06/13 09:30:42;;;;;;;5.28;2.90;;;;;;;24.44;26.19;99442.06;1086521;47;20033;-80
2023/06/13 09:31:46;;;;;;;8.32;2.90;;;;;;;24.69;26.13;99440.81;1086496;54;20042;-83
2023/06/13 09:32:49;;;;;;;4.05;2.33;;;;;;;25.13;25.82;99438.06;1086537;54;20834;-83
2023/06/13 09:33:56;;;;;;;6.43;2.75;;;;;;;24.97;26.08;99437.06;1086559;54;20042;-81
2023/06/13 09:34:57;;;;;;;5.18;2.92;;;;;;;24.92;25.78;99439.75;1087034;39;20825;-82
2023/06/13 09:36:01;;;;;;;8.60;4.10;;;;;;;24.79;25.98;99440.94;1088316;39;21003;-80
2023/06/13 09:37:02;;;;;;;5.63;3.00;;;;;;;25.20;25.67;99435.13;1088036;39;20695;-79